»·PEaware :: ASA910 KPSP-KSFO

ASA910 :: KPSP-KSFO

FLIGHT INFORMATION

Flight Status: Arrived
Operator:
Alaska Airlines
More flights by this operator :: More flights under this callsign
Pilot: Sam D. (11311)
Aircraft: AIRBUS A320
(A320)
More flights by this aircraft type
Origin: KPSP Palm Springs Intl
United States
Destination: KSFO San Francisco Intl
United States
More flights between these airports :: More routes between these airports
Route: CATH1 PSP V386 PMD AVE MAKRS SERFR SERFR4
File this flight plan on PilotEdge
Remarks: RMK / SIMBRIEF
Altitude:
(Current/Filed)
34,000ft
Speed:
(Current/Filed)
381kts
Departed: 04-Jan-21 09:26 PM
Arrived: 04-Jan-21 10:39 PM
Distance/Time
Traveled:
365nm/1:12
Distance/Time
To Go:
Arrived

Flight Plot

Page will automatically refresh every two minutes.

Flight plan parsing failed; only flown route is shown


Map Options




Map Legend


Flown Route
Filed Route
Departure Airport
Arrival Airport
Navaid (VOR, NDB)
Fix

Horizontal Profiles

Position Reports

Time Latitude Longitude Heading Altitude Ground
Speed
04-Jan-21 20:31 33.823418 -116.505900 245 491ft 0kts
04-Jan-21 20:32 33.823418 -116.505900 245 491ft 0kts
04-Jan-21 20:33 33.823418 -116.505900 245 491ft 0kts
04-Jan-21 20:34 33.823418 -116.505900 245 491ft 0kts
04-Jan-21 20:35 33.823418 -116.505900 245 491ft 0kts
04-Jan-21 20:36 33.823418 -116.505900 245 491ft 0kts
04-Jan-21 20:37 33.823418 -116.505900 245 491ft 0kts
04-Jan-21 20:38 33.823418 -116.505900 245 491ft 0kts
04-Jan-21 20:39 33.823418 -116.505900 245 491ft 0kts
04-Jan-21 20:40 33.823418 -116.505900 245 491ft 0kts
04-Jan-21 20:41 33.823418 -116.505900 245 491ft 0kts
04-Jan-21 20:42 33.823418 -116.505900 245 491ft 0kts
04-Jan-21 20:43 33.823418 -116.505900 245 491ft 0kts
04-Jan-21 20:44 33.823418 -116.505900 245 491ft 0kts
04-Jan-21 20:45 33.823418 -116.505900 245 491ft 0kts
04-Jan-21 20:46 33.823418 -116.505900 245 491ft 0kts
04-Jan-21 20:47 33.823418 -116.505900 245 491ft 0kts
04-Jan-21 20:48 33.823418 -116.505900 245 491ft 0kts
04-Jan-21 20:49 33.823418 -116.505900 245 491ft 0kts
04-Jan-21 20:50 33.823418 -116.505900 245 491ft 0kts
04-Jan-21 20:51 33.823418 -116.505900 245 491ft 0kts
04-Jan-21 20:53 33.823418 -116.505900 245 491ft 0kts
04-Jan-21 20:54 33.823418 -116.505900 245 491ft 0kts
04-Jan-21 20:55 33.823418 -116.505900 245 491ft 0kts
04-Jan-21 20:56 33.823418 -116.505900 245 491ft 0kts
04-Jan-21 20:57 33.823418 -116.505900 245 491ft 0kts
04-Jan-21 20:58 33.823418 -116.505900 245 491ft 0kts
04-Jan-21 20:59 33.823418 -116.505900 245 491ft 0kts
04-Jan-21 21:00 33.823418 -116.505900 245 491ft 0kts
04-Jan-21 21:01 33.823418 -116.505900 245 491ft 0kts
04-Jan-21 21:02 33.823418 -116.505900 245 491ft 0kts
04-Jan-21 21:03 33.823418 -116.505900 245 491ft 0kts
04-Jan-21 21:04 33.823418 -116.505900 245 491ft 0kts
04-Jan-21 21:05 33.823418 -116.505900 245 491ft 0kts
04-Jan-21 21:06 33.823418 -116.505900 245 491ft 0kts
04-Jan-21 21:07 33.823418 -116.505900 245 491ft 0kts
04-Jan-21 21:07 33.823418 -116.505900 245 491ft 0kts
04-Jan-21 21:09 33.823878 -116.505449 146 491ft 2kts
04-Jan-21 21:10 33.823900 -116.505466 143 491ft 0kts
04-Jan-21 21:10 33.823900 -116.505466 143 491ft 0kts
04-Jan-21 21:12 33.823900 -116.505466 143 491ft 0kts
04-Jan-21 21:12 33.823900 -116.505466 143 491ft 0kts
04-Jan-21 21:13 33.823900 -116.505466 143 491ft 0kts
04-Jan-21 21:14 33.823782 -116.505361 143 491ft 0kts
04-Jan-21 21:15 33.823307 -116.504895 126 491ft 0kts
04-Jan-21 21:16 33.823274 -116.504830 119 491ft 1kts
04-Jan-21 21:17 33.822750 -116.503561 142 491ft 7kts
04-Jan-21 21:18 33.821040 -116.502032 143 491ft 7kts
04-Jan-21 21:19 33.819288 -116.500471 143 491ft 7kts
04-Jan-21 21:20 33.818522 -116.499126 88 491ft 0kts
04-Jan-21 21:21 33.818522 -116.499125 88 491ft 0kts
04-Jan-21 21:22 33.818522 -116.499125 88 491ft 0kts
04-Jan-21 21:23 33.818522 -116.499123 88 491ft 0kts
04-Jan-21 21:24 33.819016 -116.498273 350 491ft 7kts
04-Jan-21 21:25 33.834159 -116.511651 323 601ft 174kts
04-Jan-21 21:26 33.875521 -116.501240 74 3142ft 217kts
04-Jan-21 21:27 33.864585 -116.419331 106 5658ft 274kts
04-Jan-21 21:28 33.826368 -116.327726 116 7006ft 327kts
04-Jan-21 21:29 33.785873 -116.233577 120 6978ft 309kts
04-Jan-21 21:30 33.722495 -116.174761 164 6993ft 289kts
04-Jan-21 21:31 33.644273 -116.182286 212 7046ft 288kts
04-Jan-21 21:32 33.629592 -116.263969 302 9772ft 278kts
04-Jan-21 21:33 33.678381 -116.345855 303 11877ft 331kts
04-Jan-21 21:34 33.732196 -116.441406 301 14377ft 354kts
04-Jan-21 21:35 33.788855 -116.541388 300 16798ft 369kts
04-Jan-21 21:36 33.847434 -116.645193 299 18994ft 381kts
04-Jan-21 21:37 33.907697 -116.752307 299 20971ft 392kts
04-Jan-21 21:38 33.968702 -116.861036 298 22745ft 401kts
04-Jan-21 21:39 34.031653 -116.973603 298 24392ft 410kts
04-Jan-21 21:40 34.095950 -117.088928 298 25857ft 418kts
04-Jan-21 21:41 34.161366 -117.206621 297 27186ft 425kts
04-Jan-21 21:42 34.227759 -117.326482 297 28361ft 432kts
04-Jan-21 21:43 34.294976 -117.448217 297 29445ft 438kts
04-Jan-21 21:44 34.362234 -117.570429 296 30847ft 434kts
04-Jan-21 21:45 34.428941 -117.692093 296 32122ft 432kts
04-Jan-21 21:46 34.494898 -117.812829 296 33271ft 430kts
04-Jan-21 21:47 34.560815 -117.933792 295 34273ft 429kts
04-Jan-21 21:48 34.626365 -118.054524 295 34274ft 427kts
04-Jan-21 21:49 34.692015 -118.175291 295 34276ft 428kts
04-Jan-21 21:50 34.757666 -118.296370 295 34308ft 429kts
04-Jan-21 21:51 34.822958 -118.417105 295 34312ft 425kts
04-Jan-21 21:52 34.887842 -118.537619 295 34243ft 424kts
04-Jan-21 21:53 34.952556 -118.658179 295 34240ft 425kts
04-Jan-21 21:54 35.017236 -118.779071 295 34272ft 425kts
04-Jan-21 21:55 35.079526 -118.895937 295 34323ft 425kts
04-Jan-21 21:56 35.143759 -119.016795 295 34319ft 423kts
04-Jan-21 21:57 35.207663 -119.137496 295 34296ft 422kts
04-Jan-21 21:58 35.271237 -119.257965 295 34266ft 421kts
04-Jan-21 21:59 35.334707 -119.378659 295 34255ft 419kts
04-Jan-21 22:00 35.397529 -119.498526 295 34266ft 418kts
04-Jan-21 22:01 35.460124 -119.618395 296 34288ft 416kts
04-Jan-21 22:02 35.522357 -119.737979 296 34262ft 414kts
04-Jan-21 22:03 35.584278 -119.857339 296 34258ft 413kts
04-Jan-21 22:04 35.643072 -119.977914 286 34255ft 405kts
04-Jan-21 22:05 35.659509 -120.105661 272 34257ft 398kts
04-Jan-21 22:06 35.672788 -120.241035 274 34242ft 397kts
04-Jan-21 22:07 35.691207 -120.367875 288 34247ft 399kts
04-Jan-21 22:08 35.740019 -120.492927 290 34290ft 409kts
04-Jan-21 22:09 35.787938 -120.619703 290 34295ft 409kts
04-Jan-21 22:10 35.836328 -120.746780 290 34286ft 409kts
04-Jan-21 22:11 35.881072 -120.865089 291 34255ft 409kts
04-Jan-21 22:12 35.928915 -120.991986 291 34250ft 406kts
04-Jan-21 22:13 35.976094 -121.117683 291 34267ft 402kts
04-Jan-21 22:14 36.023459 -121.244377 292 34303ft 407kts
04-Jan-21 22:15 36.077830 -121.366963 309 34309ft 413kts
04-Jan-21 22:16 36.173552 -121.446515 324 33018ft 411kts
04-Jan-21 22:17 36.266026 -121.519200 324 30440ft 407kts
04-Jan-21 22:18 36.360777 -121.593245 324 27906ft 397kts
04-Jan-21 22:19 36.451943 -121.664974 324 25407ft 378kts
04-Jan-21 22:20 36.537956 -121.732749 324 23596ft 348kts
04-Jan-21 22:21 36.616242 -121.794758 323 21336ft 337kts
04-Jan-21 22:22 36.693568 -121.856100 323 19453ft 325kts
04-Jan-21 22:23 36.773664 -121.904467 340 17705ft 322kts
04-Jan-21 22:24 36.860862 -121.927358 340 15717ft 314kts
04-Jan-21 22:25 36.945702 -121.951327 340 14082ft 311kts
04-Jan-21 22:26 37.024743 -121.981470 336 12515ft 298kts
04-Jan-21 22:27 37.102769 -122.011907 337 11215ft 277kts
04-Jan-21 22:28 37.172503 -122.039186 337 10101ft 255kts
04-Jan-21 22:30 37.241261 -122.066186 338 8571ft 260kts
04-Jan-21 22:31 37.309108 -122.092826 338 6971ft 257kts
04-Jan-21 22:32 37.376046 -122.119528 340 6076ft 251kts
04-Jan-21 22:33 37.442365 -122.142022 341 4667ft 247kts
04-Jan-21 22:34 37.508135 -122.164612 341 3392ft 241kts
04-Jan-21 22:35 37.551029 -122.213749 295 2561ft 203kts
04-Jan-21 22:36 37.575612 -122.272353 296 1597ft 163kts
04-Jan-21 22:37 37.594039 -122.316206 297 810ft 134kts
04-Jan-21 22:38 37.611318 -122.357254 298 99ft 127kts
04-Jan-21 22:39 37.619976 -122.378735 251 27ft 14kts
04-Jan-21 22:40 37.619625 -122.379350 229 27ft 0kts
04-Jan-21 22:41 37.619352 -122.379701 221 27ft 3kts
04-Jan-21 22:42 37.618085 -122.379679 208 27ft 2kts
04-Jan-21 22:43 37.617861 -122.380636 257 27ft 0kts
04-Jan-21 22:43 37.617861 -122.380636 257 27ft 0kts
04-Jan-21 22:45 37.617861 -122.380636 257 27ft 0kts
04-Jan-21 22:46 37.617861 -122.380636 257 27ft 0kts
04-Jan-21 22:46 37.617861 -122.380636 257 27ft 0kts
04-Jan-21 22:47 37.617861 -122.380636 257 27ft 0kts
04-Jan-21 22:49 37.617861 -122.380636 257 27ft 0kts
04-Jan-21 22:49 37.617861 -122.380636 257 27ft 0kts
04-Jan-21 22:50 37.617861 -122.380636 257 27ft 0kts
04-Jan-21 22:51 37.617861 -122.380636 257 27ft 0kts
04-Jan-21 22:52 37.617861 -122.380636 257 27ft 0kts

Navigation Log

Ident Type
Flight plan parsing failed, navigation log unavailable